Time;durP1;ratioP1;P1;durP2;ratioP2;P2;SDS_P1;SDS_P2;PMS_P1;PMS_P2;Temp;Humidity;BMP_temperature;BMP_pressure;BME280_temperature;BME280_humidity;BME280_pressure;Samples;Min_cycle;Max_cycle;Signal;HPM_P1;HPM_P2
2023/01/08 00:01:29;;;;;;;1.38;0.90;;;;;;;17.50;46.66;100181.06;5014804;28;20563;-70
2023/01/08 00:03:54;;;;;;;2.53;1.08;;;;;;;17.52;47.30;100186.28;5014742;28;20042;-70
2023/01/08 00:06:24;;;;;;;3.22;1.00;;;;;;;17.54;46.38;100186.94;5013785;28;20034;-72
2023/01/08 00:08:49;;;;;;;3.55;1.08;;;;;;;17.55;46.52;100194.91;5013721;28;20034;-71
2023/01/08 00:11:15;;;;;;;2.65;1.00;;;;;;;17.58;47.01;100202.66;5015969;28;20026;-72
2023/01/08 00:13:40;;;;;;;2.35;1.35;;;;;;;17.62;46.79;100201.22;5014742;28;20060;-71
2023/01/08 00:16:09;;;;;;;0.95;0.75;;;;;;;17.62;46.53;100194.97;5016876;28;20065;-71
2023/01/08 00:18:34;;;;;;;2.60;0.80;;;;;;;17.61;47.38;100199.56;5034212;28;20444;-71
2023/01/08 00:21:00;;;;;;;1.42;1.15;;;;;;;17.63;46.28;100197.50;5034007;28;20033;-72
2023/01/08 00:23:25;;;;;;;1.73;1.13;;;;;;;17.66;47.02;100191.72;5034862;28;20386;-70
2023/01/08 00:25:51;;;;;;;1.80;0.55;;;;;;;17.67;46.43;100190.66;5033753;28;20413;-71
2023/01/08 00:28:16;;;;;;;1.45;0.85;;;;;;;17.67;47.20;100187.94;5034004;28;20497;-70
2023/01/08 00:30:42;;;;;;;2.40;0.95;;;;;;;17.70;46.82;100184.03;5023999;28;20033;-71
2023/01/08 00:33:08;;;;;;;1.98;1.08;;;;;;;17.71;46.49;100173.00;5014543;28;20060;-72
2023/01/08 00:35:33;;;;;;;5.45;1.70;;;;;;;17.72;47.40;100169.28;5014640;28;20064;-71
2023/01/08 00:37:59;;;;;;;3.13;0.85;;;;;;;17.73;46.80;100173.66;4997386;28;20049;-72
2023/01/08 00:40:24;;;;;;;2.40;1.15;;;;;;;17.74;46.66;100172.63;5014189;28;20046;-71
2023/01/08 00:42:49;;;;;;;2.65;1.17;;;;;;;17.75;46.31;100162.63;4996638;28;20038;-70
2023/01/08 00:45:15;;;;;;;4.68;0.93;;;;;;;17.73;46.71;100156.53;5020779;28;20025;-72
2023/01/08 00:47:40;;;;;;;3.65;1.33;;;;;;;17.72;47.03;100153.03;5031695;28;20164;-71
2023/01/08 00:50:06;;;;;;;3.05;1.17;;;;;;;17.71;46.87;100162.16;4996773;28;20033;-71
2023/01/08 00:52:31;;;;;;;4.35;1.50;;;;;;;17.67;46.37;100147.31;4996506;28;20041;-71
2023/01/08 00:54:57;;;;;;;3.70;1.10;;;;;;;17.66;47.23;100159.19;5013793;28;20041;-72
2023/01/08 00:57:22;;;;;;;1.50;1.38;;;;;;;17.64;46.40;100155.00;4996372;28;20022;-72
2023/01/08 00:59:47;;;;;;;2.05;0.80;;;;;;;17.64;47.42;100149.59;5013803;28;20038;-69
2023/01/08 01:02:13;;;;;;;3.75;1.13;;;;;;;17.63;47.13;100159.59;5014426;28;20120;-71
2023/01/08 01:04:38;;;;;;;3.60;0.98;;;;;;;17.62;46.97;100147.06;5013604;28;20069;-71
2023/01/08 01:07:04;;;;;;;3.92;1.15;;;;;;;17.60;46.50;100149.13;5009130;28;20048;-70
2023/01/08 01:09:29;;;;;;;2.13;0.80;;;;;;;17.61;47.37;100155.38;5033528;28;20535;-71
2023/01/08 01:11:54;;;;;;;1.88;0.95;;;;;;;17.63;47.01;100159.59;5029777;28;20034;-72
2023/01/08 01:14:20;;;;;;;6.53;1.08;;;;;;;17.66;46.07;100152.94;5014140;28;20556;-70
2023/01/08 01:16:47;;;;;;;1.08;0.90;;;;;;;17.65;47.34;100160.22;5013625;28;20128;-71
2023/01/08 01:19:16;;;;;;;1.75;1.30;;;;;;;17.65;46.53;100162.94;5013356;28;20029;-72
2023/01/08 01:21:42;;;;;;;5.90;1.33;;;;;;;17.66;47.41;100153.78;5013008;28;20497;-70
2023/01/08 01:24:09;;;;;;;2.30;1.35;;;;;;;17.68;47.40;100151.72;5013543;28;20045;-71
2023/01/08 01:26:35;;;;;;;1.20;1.00;;;;;;;17.66;46.74;100142.09;5013284;28;20474;-71
2023/01/08 01:29:00;;;;;;;2.67;1.55;;;;;;;17.66;46.93;100148.38;4996087;28;20088;-71
2023/01/08 01:31:28;;;;;;;6.50;2.63;;;;;;;17.70;46.67;100146.94;5013294;28;20379;-71
2023/01/08 01:33:53;;;;;;;2.80;1.00;;;;;;;17.71;46.85;100145.06;5013200;28;20107;-72
2023/01/08 01:36:22;;;;;;;2.05;1.15;;;;;;;17.72;47.04;100144.91;5020501;28;20494;-71
2023/01/08 01:38:49;;;;;;;1.42;1.00;;;;;;;17.74;47.35;100152.81;5030097;28;20394;-71
2023/01/08 01:41:40;;;;;;;3.03;1.10;;;;;;;17.75;46.90;100141.81;5013540;28;20053;-70
2023/01/08 01:44:35;;;;;;;3.95;0.93;;;;;;;17.73;46.68;100138.44;5033294;28;20068;-69
2023/01/08 01:47:10;;;;;;;9.45;0.85;;;;;;;17.72;47.49;100141.34;5032932;28;20052;-71
2023/01/08 01:49:35;;;;;;;2.15;1.13;;;;;;;17.71;46.63;100135.09;4998017;28;20060;-70
2023/01/08 01:52:03;;;;;;;2.72;1.20;;;;;;;17.70;46.23;100136.09;5013281;28;20502;-71
2023/01/08 01:54:30;;;;;;;9.02;1.48;;;;;;;17.70;47.13;100138.81;5013185;28;20033;-71
2023/01/08 01:56:55;;;;;;;4.70;1.35;;;;;;;17.72;47.40;100147.59;4999341;28;20037;-70
2023/01/08 01:59:21;;;;;;;2.45;1.33;;;;;;;17.73;46.73;100133.00;5033104;28;20037;-70
2023/01/08 02:01:46;;;;;;;1.83;0.80;;;;;;;17.75;46.79;100147.22;5032442;28;20049;-70
2023/01/08 02:04:12;;;;;;;1.10;1.00;;;;;;;17.77;46.75;100141.59;4998320;28;20430;-71
2023/01/08 02:07:00;;;;;;;2.42;0.98;;;;;;;17.78;47.40;100151.41;5022954;28;20034;-71
2023/01/08 02:09:50;;;;;;;2.30;1.23;;;;;;;17.79;47.54;100140.38;4995382;28;20041;-70
2023/01/08 02:12:24;;;;;;;1.23;1.13;;;;;;;17.77;47.06;100142.44;5001943;28;20156;-72
2023/01/08 02:15:06;;;;;;;1.58;0.90;;;;;;;17.75;46.46;100139.09;5029781;28;20040;-70
2023/01/08 02:18:06;;;;;;;2.65;0.95;;;;;;;17.75;46.70;100139.09;5013144;28;20498;-71
2023/01/08 02:20:50;;;;;;;0.75;0.75;;;;;;;17.78;46.54;100130.56;4995870;28;20128;-71
2023/01/08 02:23:37;;;;;;;3.80;0.77;;;;;;;17.78;47.17;100124.31;5015751;28;20097;-72
2023/01/08 02:26:06;;;;;;;1.02;0.90;;;;;;;17.77;46.82;100130.75;5032827;28;20128;-71
2023/01/08 02:28:37;;;;;;;2.67;0.90;;;;;;;17.75;47.24;100122.84;5014954;28;20516;-71
2023/01/08 02:31:03;;;;;;;1.80;0.88;;;;;;;17.75;46.96;100124.72;5019479;28;20026;-71
2023/01/08 02:33:29;;;;;;;1.90;0.95;;;;;;;17.77;46.76;100122.63;5014112;28;20033;-71
2023/01/08 02:36:28;;;;;;;2.20;0.90;;;;;;;17.77;46.63;100111.78;4999058;28;20120;-72
2023/01/08 02:39:05;;;;;;;3.15;0.85;;;;;;;17.74;46.92;100102.19;5016398;28;20030;-71
2023/01/08 02:41:40;;;;;;;2.33;1.15;;;;;;;17.74;46.37;100102.19;4998915;28;20017;-71
2023/01/08 02:44:07;;;;;;;2.20;2.00;;;;;;;17.73;46.63;100091.53;5017004;28;20034;-71
2023/01/08 02:46:33;;;;;;;3.95;0.80;;;;;;;17.75;46.79;100093.03;4998553;28;20054;-71
2023/01/08 02:49:06;;;;;;;3.15;1.30;;;;;;;17.76;46.87;100080.31;4998725;28;20042;-71
2023/01/08 02:51:52;;;;;;;1.23;1.13;;;;;;;17.73;47.21;100089.66;5016249;28;20030;-70
2023/01/08 02:54:21;;;;;;;2.42;1.00;;;;;;;17.72;46.58;100082.59;5016119;28;20022;-70
2023/01/08 02:56:52;;;;;;;2.25;0.77;;;;;;;17.71;47.05;100080.91;5001684;28;20037;-70
2023/01/08 02:59:18;;;;;;;1.02;0.80;;;;;;;17.68;46.31;100075.88;5018855;28;20042;-71
2023/01/08 03:01:44;;;;;;;1.45;0.82;;;;;;;17.67;46.64;100085.00;5001678;28;20042;-71
2023/01/08 03:04:15;;;;;;;0.75;0.63;;;;;;;17.66;47.26;100082.50;5001610;28;20040;-71
2023/01/08 03:06:41;;;;;;;1.85;0.90;;;;;;;17.63;47.11;100072.91;5008222;28;20030;-69
2023/01/08 03:09:06;;;;;;;1.85;0.82;;;;;;;17.65;47.18;100072.69;4998562;28;20029;-71
2023/01/08 03:11:40;;;;;;;0.57;0.43;;;;;;;17.68;47.43;100065.03;5015962;28;20065;-71
2023/01/08 03:14:19;;;;;;;2.30;0.60;;;;;;;17.67;47.33;100067.94;4998952;28;20076;-70
2023/01/08 03:16:47;;;;;;;0.63;0.63;;;;;;;17.70;47.02;100065.66;4998099;28;20026;-71
2023/01/08 03:19:25;;;;;;;1.10;0.75;;;;;;;17.70;46.46;100062.97;5015639;28;20037;-71
2023/01/08 03:21:51;;;;;;;2.05;0.80;;;;;;;17.71;46.49;100066.50;5015693;28;20042;-69
2023/01/08 03:24:23;;;;;;;1.33;0.75;;;;;;;17.71;47.40;100064.66;5015815;28;20065;-70
2023/01/08 03:26:51;;;;;;;1.98;0.60;;;;;;;17.71;46.99;100056.53;4998022;28;20034;-69
2023/01/08 03:29:18;;;;;;;1.00;0.93;;;;;;;17.72;47.10;100060.06;4998466;28;20478;-72
2023/01/08 03:31:44;;;;;;;1.17;0.40;;;;;;;17.75;46.27;100067.81;5016301;28;20553;-71
2023/01/08 03:34:12;;;;;;;1.00;0.55;;;;;;;17.77;46.68;100057.63;5021330;28;20046;-71
2023/01/08 03:36:39;;;;;;;0.95;0.50;;;;;;;17.76;47.21;100054.06;5015406;28;20029;-70
2023/01/08 03:39:11;;;;;;;0.85;0.60;;;;;;;17.75;47.16;100055.13;4997954;28;20115;-71
2023/01/08 03:41:36;;;;;;;0.70;0.63;;;;;;;17.79;46.01;100067.22;5015206;28;20034;-70
2023/01/08 03:44:02;;;;;;;2.85;0.60;;;;;;;17.80;47.41;100066.19;5015434;28;20026;-71
2023/01/08 03:46:31;;;;;;;1.02;0.52;;;;;;;17.81;46.21;100064.34;5015091;28;20048;-70
2023/01/08 03:48:58;;;;;;;1.20;0.65;;;;;;;17.80;46.86;100062.66;5015021;28;20495;-69
2023/01/08 03:51:23;;;;;;;0.50;0.30;;;;;;;17.79;47.23;100055.53;5015013;28;20033;-70
2023/01/08 03:53:52;;;;;;;0.65;0.43;;;;;;;17.75;46.90;100068.66;4997533;28;20045;-71
2023/01/08 03:56:17;;;;;;;2.28;0.32;;;;;;;17.74;46.85;100060.72;4997998;28;20034;-71
2023/01/08 03:58:43;;;;;;;1.35;0.50;;;;;;;17.70;46.35;100057.53;5015193;28;20089;-71
2023/01/08 04:01:08;;;;;;;0.38;0.20;;;;;;;17.67;46.04;100057.94;5015002;28;20402;-71
2023/01/08 04:03:34;;;;;;;1.73;0.82;;;;;;;17.63;46.82;100059.38;5014771;28;20043;-71
2023/01/08 04:05:59;;;;;;;1.20;0.47;;;;;;;17.63;46.88;100055.81;5001689;28;20029;-71
2023/01/08 04:08:25;;;;;;;0.68;0.25;;;;;;;17.61;46.44;100039.75;5035217;28;20056;-71
2023/01/08 04:10:50;;;;;;;0.73;0.30;;;;;;;17.62;47.30;100043.28;5014979;28;20129;-70
2023/01/08 04:13:16;;;;;;;0.63;0.60;;;;;;;17.58;47.08;100037.44;5014746;28;20034;-70
2023/01/08 04:15:47;;;;;;;0.52;0.20;;;;;;;17.54;46.80;100046.97;5024661;28;20553;-69
2023/01/08 04:18:12;;;;;;;1.00;0.43;;;;;;;17.54;46.09;100046.97;5028332;28;20034;-71
2023/01/08 04:20:37;;;;;;;0.63;0.40;;;;;;;17.56;47.68;100053.03;4996899;28;20030;-71
2023/01/08 04:23:03;;;;;;;1.55;0.40;;;;;;;17.54;46.23;100041.56;5015227;28;20040;-70
2023/01/08 04:25:28;;;;;;;0.43;0.30;;;;;;;17.53;46.68;100044.44;5031415;28;20037;-71
2023/01/08 04:27:53;;;;;;;0.88;0.28;;;;;;;17.54;47.38;100036.13;5022385;28;20045;-71
2023/01/08 04:30:19;;;;;;;0.95;0.43;;;;;;;17.59;46.60;100038.28;5014391;28;20030;-70
2023/01/08 04:32:44;;;;;;;0.25;0.25;;;;;;;17.60;45.87;100038.06;5014344;28;20087;-70
2023/01/08 04:35:10;;;;;;;1.13;0.40;;;;;;;17.59;46.40;100033.69;5014887;28;20112;-71
2023/01/08 04:37:35;;;;;;;4.38;0.55;;;;;;;17.63;47.37;100044.97;5014164;28;20501;-69
2023/01/08 04:40:00;;;;;;;0.93;0.40;;;;;;;17.66;46.83;100045.44;5013983;28;20030;-70
2023/01/08 04:42:26;;;;;;;0.75;0.57;;;;;;;17.68;46.22;100048.78;5022107;28;20032;-70
2023/01/08 04:44:51;;;;;;;0.80;0.43;;;;;;;17.70;47.19;100052.13;5030700;28;20060;-71
2023/01/08 04:47:16;;;;;;;0.30;0.30;;;;;;;17.68;47.38;100053.34;5014427;28;20414;-71
2023/01/08 04:49:42;;;;;;;0.40;0.32;;;;;;;17.61;46.31;100060.59;4996516;28;20041;-71
2023/01/08 04:52:07;;;;;;;0.28;0.28;;;;;;;17.54;46.94;100056.97;4996332;28;20109;-71
2023/01/08 04:54:32;;;;;;;0.50;0.50;;;;;;;17.49;47.18;100054.81;5020690;28;20037;-71
2023/01/08 04:56:58;;;;;;;2.05;0.50;;;;;;;17.47;48.06;100056.88;5013397;28;20243;-71
2023/01/08 04:59:23;;;;;;;0.30;0.30;;;;;;;17.44;47.57;100058.09;5013451;28;20093;-70
2023/01/08 05:01:48;;;;;;;1.17;0.40;;;;;;;17.40;48.03;100045.97;5013926;28;20087;-71
2023/01/08 05:04:14;;;;;;;2.15;0.45;;;;;;;17.35;47.24;100042.16;5028371;28;20046;-70
2023/01/08 05:06:39;;;;;;;6.03;0.82;;;;;;;17.33;46.59;100049.66;5033391;28;20033;-70
2023/01/08 05:09:04;;;;;;;1.25;0.43;;;;;;;17.28;47.10;100052.91;5033554;28;20083;-71
2023/01/08 05:11:30;;;;;;;1.30;0.40;;;;;;;17.25;46.93;100044.34;5033655;28;20025;-71
2023/01/08 05:13:55;;;;;;;1.33;0.30;;;;;;;17.20;46.87;100057.59;5016429;28;20485;-70
2023/01/08 05:16:21;;;;;;;2.13;0.55;;;;;;;17.12;47.36;100069.38;5015758;28;20033;-71
2023/01/08 05:18:47;;;;;;;0.68;0.47;;;;;;;17.01;46.99;100077.16;4999417;28;20575;-70
2023/01/08 05:21:12;;;;;;;4.22;0.43;;;;;;;16.89;47.50;100080.34;5033253;28;20049;-70
2023/01/08 05:23:38;;;;;;;2.30;0.30;;;;;;;16.82;47.84;100092.94;5015737;28;20104;-71
2023/01/08 05:26:05;;;;;;;1.60;0.35;;;;;;;16.75;47.14;100096.59;5033900;28;20025;-71
2023/01/08 05:28:31;;;;;;;0.50;0.15;;;;;;;16.69;48.32;100084.66;5033011;28;20424;-71
2023/01/08 05:30:56;;;;;;;3.20;0.40;;;;;;;16.66;47.56;100093.13;5033080;28;20029;-72
2023/01/08 05:33:23;;;;;;;1.13;0.20;;;;;;;16.62;47.76;100089.13;5033121;28;20029;-70
2023/01/08 05:35:48;;;;;;;3.33;0.70;;;;;;;16.58;47.75;100081.56;5033283;28;20583;-71
2023/01/08 05:38:13;;;;;;;0.95;0.30;;;;;;;16.55;47.91;100076.53;5033527;28;20029;-72
2023/01/08 05:40:39;;;;;;;5.60;0.40;;;;;;;16.52;46.92;100071.47;5032830;28;20087;-70
2023/01/08 05:43:04;;;;;;;1.05;0.32;;;;;;;16.48;48.28;100056.63;5033204;28;20037;-70
2023/01/08 05:45:31;;;;;;;4.10;0.52;;;;;;;16.46;48.26;100050.56;5015550;28;20021;-71
2023/01/08 05:47:56;;;;;;;3.08;0.17;;;;;;;16.43;47.56;100038.28;5018408;28;20038;-71
2023/01/08 05:50:22;;;;;;;2.05;0.10;;;;;;;16.41;46.45;100045.75;4980001;28;20022;-71
2023/01/08 05:52:47;;;;;;;3.17;0.30;;;;;;;16.36;46.94;100040.03;5013153;28;20548;-71
2023/01/08 05:55:12;;;;;;;2.03;0.30;;;;;;;16.29;47.35;100052.63;5013054;28;20121;-72
2023/01/08 05:57:38;;;;;;;0.63;0.20;;;;;;;16.23;46.40;100056.91;4995427;28;20026;-70
2023/01/08 06:00:05;;;;;;;0.95;0.25;;;;;;;16.18;46.97;100050.38;5013031;28;20077;-71
2023/01/08 06:02:31;;;;;;;2.88;0.60;;;;;;;16.15;46.52;100048.88;4979613;28;20049;-70
2023/01/08 06:04:56;;;;;;;0.55;0.17;;;;;;;16.13;46.59;100052.78;4995873;28;20478;-71
2023/01/08 06:07:21;;;;;;;0.95;0.20;;;;;;;16.11;46.85;100052.94;5012807;28;20030;-71
2023/01/08 06:09:47;;;;;;;0.57;0.35;;;;;;;16.08;46.47;100060.59;5017091;28;20040;-71
2023/01/08 06:12:12;;;;;;;3.53;0.57;;;;;;;16.05;46.73;100042.06;5016869;28;20034;-71
2023/01/08 06:14:37;;;;;;;2.97;0.30;;;;;;;16.03;47.65;100038.69;4983110;28;20121;-70
2023/01/08 06:17:03;;;;;;;2.50;0.63;;;;;;;16.01;47.68;100047.00;5017436;28;20026;-72
2023/01/08 06:19:28;;;;;;;4.35;0.45;;;;;;;16.03;46.34;100046.78;5016956;28;20034;-71
2023/01/08 06:21:53;;;;;;;1.88;0.30;;;;;;;16.04;47.80;100056.59;5016694;28;20038;-71
2023/01/08 06:24:19;;;;;;;0.80;0.63;;;;;;;16.01;47.79;100054.25;5016832;28;20034;-72
2023/01/08 06:26:44;;;;;;;0.63;0.20;;;;;;;15.98;46.29;100054.59;5016740;28;20085;-70
2023/01/08 06:29:10;;;;;;;0.57;0.40;;;;;;;15.96;47.87;100062.06;5017033;28;20029;-70
2023/01/08 06:31:35;;;;;;;4.65;0.85;;;;;;;15.93;47.00;100059.72;5016536;28;20122;-70
2023/01/08 06:34:00;;;;;;;1.08;0.30;;;;;;;15.90;46.50;100065.50;5016445;28;20041;-69
2023/01/08 06:36:26;;;;;;;1.10;0.25;;;;;;;15.89;46.48;100074.59;5016497;28;20046;-70
2023/01/08 06:38:52;;;;;;;0.90;0.38;;;;;;;15.84;47.16;100071.63;4998794;28;20109;-71
2023/01/08 06:41:17;;;;;;;3.60;0.13;;;;;;;15.83;47.56;100069.94;4999297;28;20088;-71
2023/01/08 06:43:42;;;;;;;0.28;0.13;;;;;;;15.84;47.63;100055.41;5016572;28;20038;-70
2023/01/08 06:46:08;;;;;;;1.08;0.15;;;;;;;15.84;47.34;100060.81;5016234;28;20111;-71
2023/01/08 06:48:35;;;;;;;0.32;0.10;;;;;;;15.81;47.28;100063.88;5017639;28;20041;-70
2023/01/08 06:51:01;;;;;;;2.60;0.95;;;;;;;15.79;47.44;100068.63;5018351;28;20129;-71
2023/01/08 06:53:26;;;;;;;0.57;0.30;;;;;;;15.77;47.15;100067.97;5019094;28;20413;-71
2023/01/08 06:55:55;;;;;;;0.88;0.20;;;;;;;15.77;46.45;100070.66;5016201;28;20034;-70
2023/01/08 06:58:22;;;;;;;3.97;0.30;;;;;;;15.78;47.61;100077.72;5015122;28;20037;-70
2023/01/08 07:00:47;;;;;;;2.05;0.47;;;;;;;15.76;46.84;100077.09;5015958;28;20084;-70
2023/01/08 07:03:13;;;;;;;2.05;0.40;;;;;;;15.73;47.33;100076.44;5014789;28;20441;-71
2023/01/08 07:05:38;;;;;;;0.52;0.20;;;;;;;15.70;46.81;100071.38;5016194;28;20057;-72
2023/01/08 07:08:04;;;;;;;1.85;0.28;;;;;;;15.66;46.79;100064.66;5016705;28;20397;-71
2023/01/08 07:10:30;;;;;;;5.88;0.57;;;;;;;15.62;47.50;100060.66;5015941;28;20073;-71
2023/01/08 07:12:56;;;;;;;6.45;0.60;;;;;;;15.61;46.28;100061.66;5015996;28;20033;-72
2023/01/08 07:15:21;;;;;;;3.50;0.60;;;;;;;15.58;47.25;100067.41;5015920;28;20512;-72
2023/01/08 07:17:46;;;;;;;2.00;0.32;;;;;;;15.58;46.45;100072.81;5015768;28;20042;-71
2023/01/08 07:20:12;;;;;;;2.17;0.20;;;;;;;15.55;46.31;100067.78;5014675;28;20026;-72
2023/01/08 07:22:37;;;;;;;1.75;0.77;;;;;;;15.53;46.92;100068.97;4998249;28;20115;-70
2023/01/08 07:25:04;;;;;;;0.65;0.40;;;;;;;15.51;47.75;100071.88;5014297;28;20034;-70
2023/01/08 07:27:29;;;;;;;1.90;0.43;;;;;;;15.50;47.54;100064.78;5015556;28;20587;-71
2023/01/08 07:29:54;;;;;;;1.33;0.35;;;;;;;15.49;47.02;100068.53;5015546;28;20123;-71
2023/01/08 07:32:20;;;;;;;4.65;1.20;;;;;;;15.48;46.07;100066.84;5015792;28;20022;-71
2023/01/08 07:34:45;;;;;;;3.90;1.05;;;;;;;15.50;46.33;100063.94;4997733;28;20042;-71
2023/01/08 07:37:11;;;;;;;5.57;0.57;;;;;;;15.53;47.72;100068.97;5014024;28;20071;-71
2023/01/08 07:39:36;;;;;;;2.22;0.50;;;;;;;15.53;46.21;100069.81;5015524;28;20508;-70
2023/01/08 07:42:01;;;;;;;4.38;0.57;;;;;;;15.53;47.69;100082.47;5014017;28;20041;-70
2023/01/08 07:44:27;;;;;;;7.43;0.65;;;;;;;15.51;46.46;100081.81;5013897;28;20509;-71
2023/01/08 07:46:52;;;;;;;3.08;0.77;;;;;;;15.50;47.48;100078.28;5020977;28;20053;-70
2023/01/08 07:49:18;;;;;;;3.72;0.47;;;;;;;15.51;47.69;100076.44;5034976;28;20549;-71
2023/01/08 07:51:43;;;;;;;3.80;0.75;;;;;;;15.49;46.58;100076.63;5034861;28;20036;-71
2023/01/08 07:54:08;;;;;;;5.82;1.23;;;;;;;15.51;46.47;100069.19;5035049;28;20121;-71
2023/01/08 07:56:34;;;;;;;2.80;1.20;;;;;;;15.51;47.48;100066.47;5035104;28;20036;-71
2023/01/08 07:58:59;;;;;;;6.50;0.85;;;;;;;15.52;47.54;100062.72;5035385;28;20501;-70
2023/01/08 08:01:25;;;;;;;2.40;0.70;;;;;;;15.53;46.20;100064.44;5034677;28;20041;-71
2023/01/08 08:03:50;;;;;;;2.42;0.70;;;;;;;15.53;47.50;100064.44;5034482;28;20438;-71
2023/01/08 08:06:16;;;;;;;2.63;0.65;;;;;;;15.53;46.13;100064.44;5016816;28;20088;-70
2023/01/08 08:08:41;;;;;;;3.75;0.45;;;;;;;15.53;47.20;100059.03;5034850;28;20060;-70
2023/01/08 08:11:06;;;;;;;2.47;1.33;;;;;;;15.55;46.13;100046.19;5034920;28;20393;-72
2023/01/08 08:13:32;;;;;;;6.22;0.50;;;;;;;15.56;46.68;100036.22;5034604;28;20044;-69
2023/01/08 08:16:05;;;;;;;7.07;0.75;;;;;;;15.57;47.03;100032.53;5046039;28;20112;-71
2023/01/08 08:18:30;;;;;;;11.25;0.98;;;;;;;15.60;47.65;100027.59;5054382;28;20037;-70
2023/01/08 08:20:56;;;;;;;6.53;1.13;;;;;;;15.67;46.55;100025.84;5054385;28;20473;-70
2023/01/08 08:23:22;;;;;;;7.50;1.10;;;;;;;15.74;46.37;100029.47;5054462;28;20496;-71
2023/01/08 08:25:48;;;;;;;6.78;0.75;;;;;;;15.79;47.65;100020.00;5036463;28;20076;-70
2023/01/08 08:28:13;;;;;;;6.53;0.75;;;;;;;15.83;47.76;100026.75;5054065;28;20107;-70
2023/01/08 08:30:39;;;;;;;3.55;1.15;;;;;;;15.89;46.91;100015.19;5053223;28;20035;-71
2023/01/08 08:33:05;;;;;;;5.30;0.70;;;;;;;15.94;46.37;100029.00;5054307;28;20033;-71
2023/01/08 08:35:31;;;;;;;5.00;0.88;;;;;;;16.00;47.38;100020.97;5054441;28;20021;-71
2023/01/08 08:37:57;;;;;;;5.20;1.52;;;;;;;16.11;46.45;100025.09;5036658;28;20024;-71
2023/01/08 08:40:23;;;;;;;8.18;0.70;;;;;;;16.19;47.60;100033.16;5054157;28;20033;-71
2023/01/08 08:42:48;;;;;;;1.85;1.15;;;;;;;16.25;47.50;100035.06;5053978;28;20082;-70
2023/01/08 08:45:14;;;;;;;5.38;0.82;;;;;;;16.33;47.46;100014.22;5053793;28;20370;-70
2023/01/08 08:47:39;;;;;;;5.00;1.35;;;;;;;16.42;46.96;100011.41;5051883;28;20056;-70
2023/01/08 08:50:05;;;;;;;6.10;0.80;;;;;;;16.48;47.26;100016.91;5016972;28;20029;-70
2023/01/08 08:52:32;;;;;;;4.05;0.50;;;;;;;16.55;46.47;100028.72;5015895;28;20034;-70
2023/01/08 08:54:57;;;;;;;5.40;0.85;;;;;;;16.60;46.50;100010.06;5033644;28;20037;-70
2023/01/08 08:57:23;;;;;;;3.67;0.98;;;;;;;16.61;46.73;100010.91;4999477;28;20156;-70
2023/01/08 08:59:49;;;;;;;3.40;0.50;;;;;;;16.60;47.49;100010.06;5018660;28;20500;-70
2023/01/08 09:02:14;;;;;;;9.75;1.17;;;;;;;16.65;46.35;100012.19;5036170;28;20103;-70
2023/01/08 09:04:39;;;;;;;3.30;0.80;;;;;;;16.71;47.24;100004.16;5035754;28;20039;-71
2023/01/08 09:07:05;;;;;;;7.13;1.15;;;;;;;16.79;47.08;100006.75;5035732;28;20033;-70
2023/01/08 09:09:30;;;;;;;3.40;0.88;;;;;;;16.84;46.34;100004.31;5053520;28;20492;-70
2023/01/08 09:11:56;;;;;;;4.88;0.93;;;;;;;16.92;46.53;100007.97;5031887;28;20121;-71
2023/01/08 09:14:21;;;;;;;3.95;0.88;;;;;;;16.98;45.93;100001.75;5033650;28;20029;-70
2023/01/08 09:16:47;;;;;;;5.35;1.50;;;;;;;16.95;47.37;100000.28;5033208;28;20029;-69
2023/01/08 09:19:12;;;;;;;3.85;0.80;;;;;;;16.97;46.60;100003.66;5015598;28;20052;-71
2023/01/08 09:21:37;;;;;;;5.55;0.93;;;;;;;16.98;46.72;99996.34;5033279;28;20044;-70
2023/01/08 09:24:03;;;;;;;1.08;0.80;;;;;;;16.96;47.62;100003.81;5020623;28;20382;-70
2023/01/08 09:26:29;;;;;;;7.97;0.98;;;;;;;16.93;46.19;99999.63;5053324;28;20033;-70
2023/01/08 09:28:56;;;;;;;2.63;0.60;;;;;;;16.92;46.63;99991.72;5054128;28;20539;-70
2023/01/08 09:31:21;;;;;;;1.98;0.70;;;;;;;16.95;47.03;99991.31;5037469;28;20038;-71
2023/01/08 09:33:47;;;;;;;1.25;0.80;;;;;;;16.96;47.52;99984.88;5044247;28;20044;-71
2023/01/08 09:36:13;;;;;;;3.33;0.85;;;;;;;16.95;47.18;99983.19;5053416;28;20036;-71
2023/01/08 09:38:38;;;;;;;3.53;0.93;;;;;;;16.98;47.23;99985.53;5051568;28;20029;-71
2023/01/08 09:41:31;;;;;;;6.43;1.02;;;;;;;17.02;46.91;99981.44;5015973;28;20505;-71
2023/01/08 09:43:57;;;;;;;1.90;0.55;;;;;;;16.98;46.98;99975.53;5050551;28;20045;-70
2023/01/08 09:46:25;;;;;;;5.15;0.90;;;;;;;17.02;47.06;99976.00;5052685;28;20033;-70
2023/01/08 09:48:51;;;;;;;1.73;1.02;;;;;;;17.08;46.50;99964.44;5041392;28;20124;-70
2023/01/08 09:51:19;;;;;;;3.58;0.70;;;;;;;17.08;47.64;99964.44;5032781;28;20111;-71
2023/01/08 09:53:45;;;;;;;5.90;1.20;;;;;;;17.06;46.12;99961.06;5015508;28;20025;-70
2023/01/08 09:56:14;;;;;;;2.58;0.82;;;;;;;17.08;47.47;99959.84;5033302;28;20097;-70
2023/01/08 09:58:49;;;;;;;4.13;0.90;;;;;;;17.15;46.75;99951.78;5050929;28;20052;-70
2023/01/08 10:01:17;;;;;;;1.98;0.50;;;;;;;17.13;47.37;99951.16;5052714;28;20041;-71
2023/01/08 10:03:46;;;;;;;2.13;0.73;;;;;;;17.12;47.28;99946.75;5052929;28;20570;-70
2023/01/08 10:06:14;;;;;;;4.32;0.73;;;;;;;17.13;47.00;99946.59;5053004;28;20025;-70
2023/01/08 10:08:39;;;;;;;1.63;0.40;;;;;;;17.15;47.57;99959.91;5051387;28;20025;-70
2023/01/08 10:11:06;;;;;;;5.82;0.90;;;;;;;17.15;47.03;99949.09;5033144;28;20452;-70
2023/01/08 10:13:32;;;;;;;4.63;1.27;;;;;;;17.10;48.12;99952.38;5032735;28;20108;-71
2023/01/08 10:15:58;;;;;;;2.78;0.90;;;;;;;17.06;47.72;99936.69;5032722;28;20030;-71
2023/01/08 10:18:25;;;;;;;6.57;0.90;;;;;;;17.05;47.45;99937.75;5032878;28;20029;-71
2023/01/08 10:20:50;;;;;;;3.28;0.88;;;;;;;17.03;47.93;99946.03;4998606;28;20029;-71
2023/01/08 10:23:18;;;;;;;4.43;1.35;;;;;;;16.96;47.72;99937.03;5033087;28;20547;-72
2023/01/08 10:25:53;;;;;;;8.43;0.85;;;;;;;16.92;47.08;99937.63;5033691;28;20040;-72
2023/01/08 10:28:37;;;;;;;2.00;0.65;;;;;;;16.86;46.98;99934.63;5052660;28;20040;-70
2023/01/08 10:31:05;;;;;;;6.20;0.88;;;;;;;16.82;48.24;99941.47;5052524;28;20033;-71
2023/01/08 10:33:37;;;;;;;3.80;0.70;;;;;;;16.78;48.29;99934.75;5043602;28;20034;-71
2023/01/08 10:36:06;;;;;;;1.73;0.68;;;;;;;16.72;48.26;99938.22;5032507;28;20033;-71
2023/01/08 10:38:38;;;;;;;4.00;0.40;;;;;;;16.66;47.32;99938.16;5014680;28;20521;-71
2023/01/08 10:41:05;;;;;;;3.03;0.98;;;;;;;16.70;48.70;99929.47;5015263;28;20036;-72
2023/01/08 10:43:33;;;;;;;0.90;0.60;;;;;;;16.82;47.40;99922.53;5032448;28;20497;-72
2023/01/08 10:45:59;;;;;;;2.92;0.73;;;;;;;16.91;47.59;99931.38;5045100;28;20041;-71
2023/01/08 10:48:29;;;;;;;0.93;0.47;;;;;;;17.02;47.49;99913.78;5052185;28;20087;-71
2023/01/08 10:51:11;;;;;;;1.40;0.40;;;;;;;17.18;47.56;99927.03;5048392;28;20029;-70
2023/01/08 10:53:36;;;;;;;2.83;1.35;;;;;;;17.51;46.77;99917.34;5014800;28;20061;-71
2023/01/08 10:56:03;;;;;;;0.68;0.28;;;;;;;18.20;45.84;99895.75;5036856;28;20496;-70
2023/01/08 10:58:29;;;;;;;3.88;0.28;;;;;;;18.18;47.14;99898.63;5036043;28;20116;-70
2023/01/08 11:01:08;;;;;;;1.13;0.40;;;;;;;18.30;47.05;99902.47;5018292;28;20041;-70
2023/01/08 11:03:33;;;;;;;0.75;0.50;;;;;;;19.13;46.07;99893.97;5027500;28;20039;-69
2023/01/08 11:05:59;;;;;;;4.63;0.45;;;;;;;19.85;44.53;99882.25;5038185;28;20730;-70
2023/01/08 11:08:24;;;;;;;1.90;0.45;;;;;;;20.37;44.26;99884.03;5038987;28;20063;-70
2023/01/08 11:10:55;;;;;;;2.58;0.38;;;;;;;20.75;43.74;99884.03;5041038;28;20493;-70
2023/01/08 11:13:20;;;;;;;3.00;0.30;;;;;;;21.10;44.02;99879.88;5042042;28;20037;-69
2023/01/08 11:16:01;;;;;;;0.17;0.10;;;;;;;21.50;43.81;99871.38;5055654;28;20562;-70
2023/01/08 11:18:27;;;;;;;0.98;0.35;;;;;;;21.85;42.40;99864.31;5029693;28;20104;-72
2023/01/08 11:20:53;;;;;;;1.05;0.22;;;;;;;21.73;43.10;99866.94;5035380;28;20042;-70
2023/01/08 11:23:19;;;;;;;0.60;0.20;;;;;;;22.09;42.13;99859.88;5018237;28;20094;-71
2023/01/08 11:25:59;;;;;;;0.20;0.20;;;;;;;21.98;42.85;99859.59;5035502;28;20034;-71
2023/01/08 11:28:41;;;;;;;0.68;0.40;;;;;;;21.80;43.08;99869.63;5017914;28;20096;-71